sensor_id;sensor_type;location;lat;lon;timestamp;temperature;humidity
16829;DHT22;8531;48.078;11.968;2024-03-23T00:54:38;10.30;99.90
16829;DHT22;8531;48.078;11.968;2024-03-23T00:57:04;10.40;99.90
16829;DHT22;8531;48.078;11.968;2024-03-23T00:59:30;10.40;99.90
16829;DHT22;8531;48.078;11.968;2024-03-23T01:01:56;10.30;99.90
16829;DHT22;8531;48.078;11.968;2024-03-23T01:04:22;10.30;99.90
16829;DHT22;8531;48.078;11.968;2024-03-23T01:06:48;10.20;99.90
16829;DHT22;8531;48.078;11.968;2024-03-23T01:09:14;10.20;99.90
16829;DHT22;8531;48.078;11.968;2024-03-23T01:11:39;10.10;99.90
16829;DHT22;8531;48.078;11.968;2024-03-23T01:14:05;10.10;99.90
16829;DHT22;8531;48.078;11.968;2024-03-23T01:16:31;10.10;99.90
16829;DHT22;8531;48.078;11.968;2024-03-23T01:18:57;10.00;99.90
16829;DHT22;8531;48.078;11.968;2024-03-23T01:21:23;10.00;99.90
16829;DHT22;8531;48.078;11.968;2024-03-23T01:23:49;9.90;99.90
16829;DHT22;8531;48.078;11.968;2024-03-23T01:26:14;9.90;99.90
16829;DHT22;8531;48.078;11.968;2024-03-23T01:28:40;9.90;99.90
16829;DHT22;8531;48.078;11.968;2024-03-23T01:31:06;9.90;99.90
16829;DHT22;8531;48.078;11.968;2024-03-23T01:33:31;9.80;99.90
16829;DHT22;8531;48.078;11.968;2024-03-23T01:35:57;9.70;99.90
16829;DHT22;8531;48.078;11.968;2024-03-23T01:38:23;9.70;99.90
16829;DHT22;8531;48.078;11.968;2024-03-23T01:40:48;9.70;99.90
16829;DHT22;8531;48.078;11.968;2024-03-23T01:43:14;9.70;99.90
16829;DHT22;8531;48.078;11.968;2024-03-23T01:45:40;9.70;99.90
16829;DHT22;8531;48.078;11.968;2024-03-23T01:48:06;9.70;99.90
16829;DHT22;8531;48.078;11.968;2024-03-23T01:50:32;9.60;99.90
16829;DHT22;8531;48.078;11.968;2024-03-23T01:53:01;9.70;99.90
16829;DHT22;8531;48.078;11.968;2024-03-23T01:55:28;9.60;99.90
16829;DHT22;8531;48.078;11.968;2024-03-23T01:57:56;9.60;99.90
16829;DHT22;8531;48.078;11.968;2024-03-23T02:00:23;9.60;99.90
16829;DHT22;8531;48.078;11.968;2024-03-23T02:02:49;9.50;99.90
16829;DHT22;8531;48.078;11.968;2024-03-23T02:05:14;9.50;99.90
16829;DHT22;8531;48.078;11.968;2024-03-23T02:07:41;9.40;99.90
16829;DHT22;8531;48.078;11.968;2024-03-23T02:10:09;9.40;99.90
16829;DHT22;8531;48.078;11.968;2024-03-23T02:12:35;9.40;99.90
16829;DHT22;8531;48.078;11.968;2024-03-23T02:15:02;9.30;99.90
16829;DHT22;8531;48.078;11.968;2024-03-23T02:17:29;9.20;99.90
16829;DHT22;8531;48.078;11.968;2024-03-23T02:19:55;9.20;99.90
16829;DHT22;8531;48.078;11.968;2024-03-23T02:22:21;9.20;99.90
16829;DHT22;8531;48.078;11.968;2024-03-23T02:24:47;9.20;99.90
16829;DHT22;8531;48.078;11.968;2024-03-23T02:27:13;9.20;99.90
16829;DHT22;8531;48.078;11.968;2024-03-23T02:29:38;9.20;99.90
16829;DHT22;8531;48.078;11.968;2024-03-23T02:32:04;9.20;99.90
16829;DHT22;8531;48.078;11.968;2024-03-23T02:34:30;9.10;99.90
16829;DHT22;8531;48.078;11.968;2024-03-23T02:36:56;9.10;99.90
16829;DHT22;8531;48.078;11.968;2024-03-23T02:39:21;9.10;99.90
16829;DHT22;8531;48.078;11.968;2024-03-23T02:41:47;9.10;99.90
16829;DHT22;8531;48.078;11.968;2024-03-23T02:44:13;9.10;99.90
16829;DHT22;8531;48.078;11.968;2024-03-23T02:46:39;9.10;99.90
16829;DHT22;8531;48.078;11.968;2024-03-23T02:49:05;9.00;99.90
16829;DHT22;8531;48.078;11.968;2024-03-23T02:51:31;9.00;99.90
16829;DHT22;8531;48.078;11.968;2024-03-23T02:53:57;9.00;99.90
16829;DHT22;8531;48.078;11.968;2024-03-23T02:56:22;9.00;99.90
16829;DHT22;8531;48.078;11.968;2024-03-23T02:58:48;9.00;99.90
16829;DHT22;8531;48.078;11.968;2024-03-23T03:01:14;9.00;99.90
16829;DHT22;8531;48.078;11.968;2024-03-23T03:03:40;9.00;99.90
16829;DHT22;8531;48.078;11.968;2024-03-23T03:06:06;9.00;99.90
16829;DHT22;8531;48.078;11.968;2024-03-23T03:08:31;9.00;99.90
16829;DHT22;8531;48.078;11.968;2024-03-23T03:10:57;9.00;99.90
16829;DHT22;8531;48.078;11.968;2024-03-23T03:13:23;9.00;99.90
16829;DHT22;8531;48.078;11.968;2024-03-23T03:15:48;9.00;99.90
16829;DHT22;8531;48.078;11.968;2024-03-23T03:18:14;9.10;99.90
16829;DHT22;8531;48.078;11.968;2024-03-23T03:20:40;9.10;99.90
16829;DHT22;8531;48.078;11.968;2024-03-23T03:23:06;9.10;99.90
16829;DHT22;8531;48.078;11.968;2024-03-23T03:25:32;9.10;99.90
16829;DHT22;8531;48.078;11.968;2024-03-23T03:27:58;9.20;99.90
16829;DHT22;8531;48.078;11.968;2024-03-23T03:30:24;9.20;99.90
16829;DHT22;8531;48.078;11.968;2024-03-23T03:32:54;9.30;99.90
16829;DHT22;8531;48.078;11.968;2024-03-23T03:35:20;9.40;99.90
16829;DHT22;8531;48.078;11.968;2024-03-23T03:37:46;9.60;99.90
16829;DHT22;8531;48.078;11.968;2024-03-23T03:40:12;9.60;99.90
16829;DHT22;8531;48.078;11.968;2024-03-23T03:42:40;9.70;99.90
16829;DHT22;8531;48.078;11.968;2024-03-23T03:45:06;9.70;99.90
16829;DHT22;8531;48.078;11.968;2024-03-23T03:47:33;9.70;99.90
16829;DHT22;8531;48.078;11.968;2024-03-23T03:49:58;9.70;99.90
16829;DHT22;8531;48.078;11.968;2024-03-23T03:52:24;9.80;99.90
16829;DHT22;8531;48.078;11.968;2024-03-23T03:54:50;9.80;99.90
16829;DHT22;8531;48.078;11.968;2024-03-23T03:57:16;9.80;99.90
16829;DHT22;8531;48.078;11.968;2024-03-23T03:59:41;9.70;99.90
16829;DHT22;8531;48.078;11.968;2024-03-23T04:02:07;9.70;99.90
16829;DHT22;8531;48.078;11.968;2024-03-23T04:04:32;9.60;99.90
16829;DHT22;8531;48.078;11.968;2024-03-23T04:07:02;9.40;99.90
16829;DHT22;8531;48.078;11.968;2024-03-23T04:09:27;9.30;99.90
16829;DHT22;8531;48.078;11.968;2024-03-23T04:11:53;9.40;99.90
16829;DHT22;8531;48.078;11.968;2024-03-23T04:14:19;9.40;99.90
16829;DHT22;8531;48.078;11.968;2024-03-23T04:16:45;9.40;99.90
16829;DHT22;8531;48.078;11.968;2024-03-23T04:19:10;9.20;99.90
16829;DHT22;8531;48.078;11.968;2024-03-23T04:21:37;9.20;99.90
16829;DHT22;8531;48.078;11.968;2024-03-23T04:24:03;9.10;99.90
16829;DHT22;8531;48.078;11.968;2024-03-23T04:26:29;9.10;99.90
16829;DHT22;8531;48.078;11.968;2024-03-23T04:28:55;9.00;99.90
16829;DHT22;8531;48.078;11.968;2024-03-23T04:31:20;9.00;99.90
16829;DHT22;8531;48.078;11.968;2024-03-23T04:33:47;8.90;99.90
16829;DHT22;8531;48.078;11.968;2024-03-23T04:36:13;8.90;99.90
16829;DHT22;8531;48.078;11.968;2024-03-23T04:38:38;8.90;99.90
16829;DHT22;8531;48.078;11.968;2024-03-23T04:41:04;8.80;99.90
16829;DHT22;8531;48.078;11.968;2024-03-23T04:43:30;8.80;99.90
16829;DHT22;8531;48.078;11.968;2024-03-23T04:45:55;8.80;99.90
16829;DHT22;8531;48.078;11.968;2024-03-23T04:48:22;8.80;99.90
16829;DHT22;8531;48.078;11.968;2024-03-23T04:50:48;8.70;99.90
16829;DHT22;8531;48.078;11.968;2024-03-23T04:53:15;8.70;99.90
16829;DHT22;8531;48.078;11.968;2024-03-23T04:55:42;8.70;99.90
16829;DHT22;8531;48.078;11.968;2024-03-23T04:58:07;8.70;99.90
16829;DHT22;8531;48.078;11.968;2024-03-23T05:00:33;8.80;99.90
16829;DHT22;8531;48.078;11.968;2024-03-23T05:02:59;8.70;99.90
16829;DHT22;8531;48.078;11.968;2024-03-23T05:05:25;8.80;99.90
16829;DHT22;8531;48.078;11.968;2024-03-23T05:07:51;8.70;99.90
16829;DHT22;8531;48.078;11.968;2024-03-23T05:10:17;8.70;99.90
16829;DHT22;8531;48.078;11.968;2024-03-23T05:12:42;8.60;99.90
16829;DHT22;8531;48.078;11.968;2024-03-23T05:15:10;8.60;99.90
16829;DHT22;8531;48.078;11.968;2024-03-23T05:17:35;8.60;99.90
16829;DHT22;8531;48.078;11.968;2024-03-23T05:20:03;8.60;99.90
16829;DHT22;8531;48.078;11.968;2024-03-23T05:22:29;8.60;99.90
16829;DHT22;8531;48.078;11.968;2024-03-23T05:24:54;8.60;99.90
16829;DHT22;8531;48.078;11.968;2024-03-23T05:27:20;8.70;99.90
16829;DHT22;8531;48.078;11.968;2024-03-23T05:29:46;8.80;99.90
16829;DHT22;8531;48.078;11.968;2024-03-23T05:32:12;8.70;99.90
16829;DHT22;8531;48.078;11.968;2024-03-23T05:34:38;8.80;99.90
16829;DHT22;8531;48.078;11.968;2024-03-23T05:37:04;8.80;99.90
16829;DHT22;8531;48.078;11.968;2024-03-23T05:39:29;8.80;99.90
16829;DHT22;8531;48.078;11.968;2024-03-23T05:41:55;8.80;99.90
16829;DHT22;8531;48.078;11.968;2024-03-23T05:44:21;8.90;99.90
16829;DHT22;8531;48.078;11.968;2024-03-23T05:46:46;8.80;99.90
16829;DHT22;8531;48.078;11.968;2024-03-23T05:49:15;8.90;99.90
16829;DHT22;8531;48.078;11.968;2024-03-23T05:51:41;9.00;99.90
16829;DHT22;8531;48.078;11.968;2024-03-23T05:54:06;9.10;99.90
16829;DHT22;8531;48.078;11.968;2024-03-23T05:56:32;9.10;99.90
16829;DHT22;8531;48.078;11.968;2024-03-23T05:58:58;9.10;99.90
16829;DHT22;8531;48.078;11.968;2024-03-23T06:01:23;9.20;99.90
16829;DHT22;8531;48.078;11.968;2024-03-23T06:03:49;9.30;99.90
16829;DHT22;8531;48.078;11.968;2024-03-23T06:06:15;9.30;99.90
16829;DHT22;8531;48.078;11.968;2024-03-23T06:08:41;9.30;99.90
16829;DHT22;8531;48.078;11.968;2024-03-23T06:11:06;9.40;99.90
16829;DHT22;8531;48.078;11.968;2024-03-23T06:13:33;9.50;99.90
16829;DHT22;8531;48.078;11.968;2024-03-23T06:15:59;9.50;99.90
16829;DHT22;8531;48.078;11.968;2024-03-23T06:18:25;9.70;99.90
16829;DHT22;8531;48.078;11.968;2024-03-23T06:20:51;9.80;99.90
16829;DHT22;8531;48.078;11.968;2024-03-23T06:23:17;9.80;99.90
16829;DHT22;8531;48.078;11.968;2024-03-23T06:25:45;9.90;99.90
16829;DHT22;8531;48.078;11.968;2024-03-23T06:28:11;9.90;99.90
16829;DHT22;8531;48.078;11.968;2024-03-23T06:30:37;9.90;99.90
16829;DHT22;8531;48.078;11.968;2024-03-23T06:33:02;9.90;99.90
16829;DHT22;8531;48.078;11.968;2024-03-23T06:35:28;10.00;99.90
16829;DHT22;8531;48.078;11.968;2024-03-23T06:37:54;10.00;99.90
16829;DHT22;8531;48.078;11.968;2024-03-23T06:40:19;10.10;99.90
16829;DHT22;8531;48.078;11.968;2024-03-23T06:42:45;10.10;99.90
16829;DHT22;8531;48.078;11.968;2024-03-23T06:45:11;10.10;99.90
16829;DHT22;8531;48.078;11.968;2024-03-23T06:47:37;10.20;99.90
16829;DHT22;8531;48.078;11.968;2024-03-23T06:50:03;10.30;99.90
16829;DHT22;8531;48.078;11.968;2024-03-23T06:52:30;10.30;99.90
16829;DHT22;8531;48.078;11.968;2024-03-23T06:54:56;10.40;99.90
16829;DHT22;8531;48.078;11.968;2024-03-23T06:57:22;10.50;99.90
16829;DHT22;8531;48.078;11.968;2024-03-23T06:59:47;10.60;99.90
16829;DHT22;8531;48.078;11.968;2024-03-23T07:02:13;10.60;99.90
16829;DHT22;8531;48.078;11.968;2024-03-23T07:04:39;10.80;99.90
16829;DHT22;8531;48.078;11.968;2024-03-23T07:07:06;10.80;99.90
16829;DHT22;8531;48.078;11.968;2024-03-23T07:09:32;10.80;99.90
16829;DHT22;8531;48.078;11.968;2024-03-23T07:11:58;10.80;99.90
16829;DHT22;8531;48.078;11.968;2024-03-23T07:14:24;11.00;99.90
16829;DHT22;8531;48.078;11.968;2024-03-23T07:16:50;11.10;99.90
16829;DHT22;8531;48.078;11.968;2024-03-23T07:19:16;11.30;99.90
16829;DHT22;8531;48.078;11.968;2024-03-23T07:21:43;11.60;99.90
16829;DHT22;8531;48.078;11.968;2024-03-23T07:24:09;11.80;99.90
16829;DHT22;8531;48.078;11.968;2024-03-23T07:26:35;11.80;99.90
16829;DHT22;8531;48.078;11.968;2024-03-23T07:29:01;12.00;99.90
16829;DHT22;8531;48.078;11.968;2024-03-23T07:31:27;12.20;99.90
16829;DHT22;8531;48.078;11.968;2024-03-23T07:33:53;12.50;99.90
16829;DHT22;8531;48.078;11.968;2024-03-23T07:36:18;12.70;99.90
16829;DHT22;8531;48.078;11.968;2024-03-23T07:38:44;12.80;99.90
16829;DHT22;8531;48.078;11.968;2024-03-23T07:41:16;13.10;99.90
16829;DHT22;8531;48.078;11.968;2024-03-23T07:43:43;13.40;99.90
16829;DHT22;8531;48.078;11.968;2024-03-23T07:46:09;13.60;99.90
16829;DHT22;8531;48.078;11.968;2024-03-23T07:48:35;14.00;99.90
16829;DHT22;8531;48.078;11.968;2024-03-23T07:51:13;14.10;99.90
16829;DHT22;8531;48.078;11.968;2024-03-23T07:53:39;14.20;99.90
16829;DHT22;8531;48.078;11.968;2024-03-23T07:56:07;14.20;99.90
16829;DHT22;8531;48.078;11.968;2024-03-23T07:58:33;14.30;99.90
16829;DHT22;8531;48.078;11.968;2024-03-23T08:01:07;14.40;99.90
16829;DHT22;8531;48.078;11.968;2024-03-23T08:03:34;14.50;99.90
16829;DHT22;8531;48.078;11.968;2024-03-23T08:06:07;14.70;99.90
16829;DHT22;8531;48.078;11.968;2024-03-23T08:08:34;14.90;99.90
16829;DHT22;8531;48.078;11.968;2024-03-23T08:10:59;14.90;99.90
16829;DHT22;8531;48.078;11.968;2024-03-23T08:13:26;15.00;99.90
16829;DHT22;8531;48.078;11.968;2024-03-23T08:15:52;15.10;99.90
16829;DHT22;8531;48.078;11.968;2024-03-23T08:18:21;14.90;99.90
16829;DHT22;8531;48.078;11.968;2024-03-23T08:20:47;14.70;99.90
16829;DHT22;8531;48.078;11.968;2024-03-23T08:23:20;14.60;99.90
16829;DHT22;8531;48.078;11.968;2024-03-23T08:25:45;14.60;99.90
16829;DHT22;8531;48.078;11.968;2024-03-23T08:28:11;14.10;99.90
16829;DHT22;8531;48.078;11.968;2024-03-23T08:30:37;13.70;99.90
16829;DHT22;8531;48.078;11.968;2024-03-23T08:33:02;13.40;99.90
16829;DHT22;8531;48.078;11.968;2024-03-23T08:35:28;13.30;99.90
16829;DHT22;8531;48.078;11.968;2024-03-23T08:37:54;13.00;99.90
16829;DHT22;8531;48.078;11.968;2024-03-23T08:40:20;12.80;99.90
16829;DHT22;8531;48.078;11.968;2024-03-23T08:42:45;12.70;99.90
16829;DHT22;8531;48.078;11.968;2024-03-23T08:45:11;12.40;99.90
16829;DHT22;8531;48.078;11.968;2024-03-23T08:47:37;12.30;99.90
16829;DHT22;8531;48.078;11.968;2024-03-23T08:50:02;12.10;99.90
16829;DHT22;8531;48.078;11.968;2024-03-23T08:52:29;11.90;99.90
16829;DHT22;8531;48.078;11.968;2024-03-23T08:54:55;11.80;99.90
16829;DHT22;8531;48.078;11.968;2024-03-23T08:57:22;11.60;99.90
16829;DHT22;8531;48.078;11.968;2024-03-23T08:59:48;11.50;99.90
16829;DHT22;8531;48.078;11.968;2024-03-23T09:02:14;11.40;99.90
16829;DHT22;8531;48.078;11.968;2024-03-23T09:04:39;11.00;99.90
16829;DHT22;8531;48.078;11.968;2024-03-23T09:07:05;10.50;99.90
16829;DHT22;8531;48.078;11.968;2024-03-23T09:09:30;10.20;99.90
16829;DHT22;8531;48.078;11.968;2024-03-23T09:11:56;10.10;99.90
16829;DHT22;8531;48.078;11.968;2024-03-23T09:14:22;10.00;99.90
16829;DHT22;8531;48.078;11.968;2024-03-23T09:16:50;9.90;99.90
16829;DHT22;8531;48.078;11.968;2024-03-23T09:19:17;9.80;99.90
16829;DHT22;8531;48.078;11.968;2024-03-23T09:21:43;9.70;99.90
16829;DHT22;8531;48.078;11.968;2024-03-23T09:24:09;9.60;99.90
16829;DHT22;8531;48.078;11.968;2024-03-23T09:26:34;9.40;99.90
16829;DHT22;8531;48.078;11.968;2024-03-23T09:29:00;9.40;99.90
16829;DHT22;8531;48.078;11.968;2024-03-23T09:31:26;9.30;99.90
16829;DHT22;8531;48.078;11.968;2024-03-23T09:33:51;9.40;99.90
16829;DHT22;8531;48.078;11.968;2024-03-23T09:36:17;9.40;99.90
16829;DHT22;8531;48.078;11.968;2024-03-23T09:38:42;9.30;99.90
16829;DHT22;8531;48.078;11.968;2024-03-23T09:41:08;9.30;99.90
16829;DHT22;8531;48.078;11.968;2024-03-23T09:43:35;9.30;99.90
16829;DHT22;8531;48.078;11.968;2024-03-23T09:46:01;9.40;99.90
16829;DHT22;8531;48.078;11.968;2024-03-23T09:48:28;9.30;99.90
16829;DHT22;8531;48.078;11.968;2024-03-23T09:50:54;9.20;99.90
16829;DHT22;8531;48.078;11.968;2024-03-23T09:53:19;9.20;99.90
16829;DHT22;8531;48.078;11.968;2024-03-23T09:55:45;9.20;99.90
16829;DHT22;8531;48.078;11.968;2024-03-23T09:58:18;9.20;99.90
16829;DHT22;8531;48.078;11.968;2024-03-23T10:00:44;9.10;99.90
16829;DHT22;8531;48.078;11.968;2024-03-23T10:03:10;9.10;99.90
16829;DHT22;8531;48.078;11.968;2024-03-23T10:05:37;9.10;99.90
16829;DHT22;8531;48.078;11.968;2024-03-23T10:08:18;9.00;99.90
16829;DHT22;8531;48.078;11.968;2024-03-23T10:10:47;9.00;99.90
16829;DHT22;8531;48.078;11.968;2024-03-23T10:13:26;8.80;99.90
16829;DHT22;8531;48.078;11.968;2024-03-23T10:15:57;8.70;99.90
16829;DHT22;8531;48.078;11.968;2024-03-23T10:18:23;8.70;99.90
16829;DHT22;8531;48.078;11.968;2024-03-23T10:23:31;8.60;99.90
16829;DHT22;8531;48.078;11.968;2024-03-23T10:26:22;8.60;99.90
16829;DHT22;8531;48.078;11.968;2024-03-23T10:31:20;8.60;99.90
16829;DHT22;8531;48.078;11.968;2024-03-23T10:33:47;8.60;99.90
16829;DHT22;8531;48.078;11.968;2024-03-23T10:36:13;8.60;99.90
16829;DHT22;8531;48.078;11.968;2024-03-23T10:38:44;8.50;99.90
16829;DHT22;8531;48.078;11.968;2024-03-23T10:41:10;8.40;99.90
16829;DHT22;8531;48.078;11.968;2024-03-23T10:43:37;8.30;99.90
16829;DHT22;8531;48.078;11.968;2024-03-23T10:46:03;8.20;99.90
16829;DHT22;8531;48.078;11.968;2024-03-23T10:48:29;8.20;99.90
16829;DHT22;8531;48.078;11.968;2024-03-23T10:50:55;8.30;99.90
16829;DHT22;8531;48.078;11.968;2024-03-23T10:53:22;8.30;99.90
16829;DHT22;8531;48.078;11.968;2024-03-23T10:55:51;8.20;99.90
16829;DHT22;8531;48.078;11.968;2024-03-23T10:58:23;7.90;99.90
16829;DHT22;8531;48.078;11.968;2024-03-23T11:00:49;7.60;99.90
16829;DHT22;8531;48.078;11.968;2024-03-23T11:03:31;7.50;99.90
16829;DHT22;8531;48.078;11.968;2024-03-23T11:05:57;7.50;99.90
16829;DHT22;8531;48.078;11.968;2024-03-23T11:08:39;7.60;99.90
16829;DHT22;8531;48.078;11.968;2024-03-23T11:11:21;7.70;99.90
16829;DHT22;8531;48.078;11.968;2024-03-23T11:13:49;7.80;99.90
16829;DHT22;8531;48.078;11.968;2024-03-23T11:16:23;7.90;99.90
16829;DHT22;8531;48.078;11.968;2024-03-23T11:18:53;7.80;99.90
16829;DHT22;8531;48.078;11.968;2024-03-23T11:21:54;7.90;99.90
16829;DHT22;8531;48.078;11.968;2024-03-23T11:24:21;7.80;99.90
16829;DHT22;8531;48.078;11.968;2024-03-23T11:26:48;7.80;99.90
16829;DHT22;8531;48.078;11.968;2024-03-23T11:29:15;7.80;99.90
16829;DHT22;8531;48.078;11.968;2024-03-23T11:31:52;7.70;99.90
16829;DHT22;8531;48.078;11.968;2024-03-23T11:34:19;7.70;99.90
16829;DHT22;8531;48.078;11.968;2024-03-23T11:36:45;7.50;99.90
16829;DHT22;8531;48.078;11.968;2024-03-23T11:39:12;7.50;99.90
16829;DHT22;8531;48.078;11.968;2024-03-23T11:41:49;7.60;99.90
16829;DHT22;8531;48.078;11.968;2024-03-23T11:44:20;7.70;99.90
16829;DHT22;8531;48.078;11.968;2024-03-23T11:46:46;7.70;99.90
16829;DHT22;8531;48.078;11.968;2024-03-23T11:49:29;7.70;99.90
16829;DHT22;8531;48.078;11.968;2024-03-23T11:51:56;7.80;99.90
16829;DHT22;8531;48.078;11.968;2024-03-23T11:54:23;7.90;99.90
16829;DHT22;8531;48.078;11.968;2024-03-23T11:56:58;7.90;99.90
16829;DHT22;8531;48.078;11.968;2024-03-23T11:59:33;7.80;99.90
16829;DHT22;8531;48.078;11.968;2024-03-23T12:01:59;7.80;99.90
16829;DHT22;8531;48.078;11.968;2024-03-23T12:04:28;7.90;99.90
16829;DHT22;8531;48.078;11.968;2024-03-23T12:07:20;7.90;99.90
16829;DHT22;8531;48.078;11.968;2024-03-23T12:10:07;8.00;99.90
16829;DHT22;8531;48.078;11.968;2024-03-23T12:12:32;8.00;99.90
16829;DHT22;8531;48.078;11.968;2024-03-23T12:15:04;8.00;99.90
16829;DHT22;8531;48.078;11.968;2024-03-23T12:17:32;8.10;99.90
16829;DHT22;8531;48.078;11.968;2024-03-23T12:19:57;8.10;99.90
16829;DHT22;8531;48.078;11.968;2024-03-23T12:22:24;8.10;99.90
16829;DHT22;8531;48.078;11.968;2024-03-23T12:24:50;8.00;99.90
16829;DHT22;8531;48.078;11.968;2024-03-23T12:27:15;8.00;99.90
16829;DHT22;8531;48.078;11.968;2024-03-23T12:29:41;8.10;99.90
16829;DHT22;8531;48.078;11.968;2024-03-23T12:32:09;8.20;99.90
16829;DHT22;8531;48.078;11.968;2024-03-23T12:34:34;8.20;99.90
16829;DHT22;8531;48.078;11.968;2024-03-23T12:37:00;8.10;99.90
16829;DHT22;8531;48.078;11.968;2024-03-23T12:39:27;8.20;99.90
16829;DHT22;8531;48.078;11.968;2024-03-23T12:41:52;8.20;99.90
16829;DHT22;8531;48.078;11.968;2024-03-23T12:44:18;8.10;99.90
16829;DHT22;8531;48.078;11.968;2024-03-23T12:46:45;8.00;99.90
16829;DHT22;8531;48.078;11.968;2024-03-23T12:49:11;7.90;99.90
16829;DHT22;8531;48.078;11.968;2024-03-23T12:51:38;7.40;99.90
16829;DHT22;8531;48.078;11.968;2024-03-23T12:54:04;7.20;99.90
16829;DHT22;8531;48.078;11.968;2024-03-23T12:56:31;7.00;99.90
16829;DHT22;8531;48.078;11.968;2024-03-23T12:58:57;7.00;99.90
16829;DHT22;8531;48.078;11.968;2024-03-23T13:01:23;7.10;99.90
16829;DHT22;8531;48.078;11.968;2024-03-23T13:03:50;7.20;99.90
16829;DHT22;8531;48.078;11.968;2024-03-23T13:06:16;7.30;99.90
16829;DHT22;8531;48.078;11.968;2024-03-23T13:08:47;7.40;99.90
16829;DHT22;8531;48.078;11.968;2024-03-23T13:11:13;7.50;99.90
16829;DHT22;8531;48.078;11.968;2024-03-23T13:13:41;7.50;99.90
16829;DHT22;8531;48.078;11.968;2024-03-23T13:16:08;7.50;99.90
16829;DHT22;8531;48.078;11.968;2024-03-23T13:18:40;7.70;99.90
16829;DHT22;8531;48.078;11.968;2024-03-23T13:21:06;7.70;99.90
16829;DHT22;8531;48.078;11.968;2024-03-23T13:23:31;7.80;99.90
16829;DHT22;8531;48.078;11.968;2024-03-23T13:25:58;7.90;99.90
16829;DHT22;8531;48.078;11.968;2024-03-23T13:28:23;8.10;99.90
16829;DHT22;8531;48.078;11.968;2024-03-23T13:30:50;8.20;99.90
16829;DHT22;8531;48.078;11.968;2024-03-23T13:33:16;8.30;99.90
16829;DHT22;8531;48.078;11.968;2024-03-23T13:35:52;8.40;99.90
16829;DHT22;8531;48.078;11.968;2024-03-23T13:38:18;8.30;99.90
16829;DHT22;8531;48.078;11.968;2024-03-23T13:41:09;8.30;99.90
16829;DHT22;8531;48.078;11.968;2024-03-23T13:43:38;8.40;99.90
16829;DHT22;8531;48.078;11.968;2024-03-23T13:46:03;8.50;99.90
16829;DHT22;8531;48.078;11.968;2024-03-23T13:48:29;8.50;99.90
16829;DHT22;8531;48.078;11.968;2024-03-23T13:51:01;8.50;99.90
16829;DHT22;8531;48.078;11.968;2024-03-23T13:53:27;8.50;99.90
16829;DHT22;8531;48.078;11.968;2024-03-23T13:55:53;8.50;99.90
16829;DHT22;8531;48.078;11.968;2024-03-23T13:58:19;8.50;99.90
16829;DHT22;8531;48.078;11.968;2024-03-23T14:00:44;8.50;99.90
16829;DHT22;8531;48.078;11.968;2024-03-23T14:03:11;8.50;99.90
16829;DHT22;8531;48.078;11.968;2024-03-23T14:05:37;8.50;99.90
16829;DHT22;8531;48.078;11.968;2024-03-23T14:08:07;8.50;99.90
16829;DHT22;8531;48.078;11.968;2024-03-23T14:10:32;8.60;99.90
16829;DHT22;8531;48.078;11.968;2024-03-23T14:12:58;8.70;99.90
16829;DHT22;8531;48.078;11.968;2024-03-23T14:15:27;8.70;99.90
16829;DHT22;8531;48.078;11.968;2024-03-23T14:17:53;8.60;99.90
16829;DHT22;8531;48.078;11.968;2024-03-23T14:20:20;8.60;99.90
16829;DHT22;8531;48.078;11.968;2024-03-23T14:22:48;8.60;99.90
16829;DHT22;8531;48.078;11.968;2024-03-23T14:25:13;8.50;99.90
16829;DHT22;8531;48.078;11.968;2024-03-23T14:27:39;8.30;99.90
16829;DHT22;8531;48.078;11.968;2024-03-23T14:30:05;8.20;99.90
16829;DHT22;8531;48.078;11.968;2024-03-23T14:32:31;8.00;99.90
16829;DHT22;8531;48.078;11.968;2024-03-23T14:35:02;7.70;99.90
16829;DHT22;8531;48.078;11.968;2024-03-23T14:37:28;7.30;99.90
16829;DHT22;8531;48.078;11.968;2024-03-23T14:39:55;7.00;99.90
16829;DHT22;8531;48.078;11.968;2024-03-23T14:42:22;6.90;99.90
16829;DHT22;8531;48.078;11.968;2024-03-23T14:44:47;6.80;99.90
16829;DHT22;8531;48.078;11.968;2024-03-23T14:47:13;6.50;99.90
16829;DHT22;8531;48.078;11.968;2024-03-23T14:49:39;6.20;99.90
16829;DHT22;8531;48.078;11.968;2024-03-23T14:52:04;6.00;99.90
16829;DHT22;8531;48.078;11.968;2024-03-23T14:54:30;6.00;99.90
16829;DHT22;8531;48.078;11.968;2024-03-23T14:56:56;6.00;99.90
16829;DHT22;8531;48.078;11.968;2024-03-23T14:59:24;5.90;99.90
16829;DHT22;8531;48.078;11.968;2024-03-23T15:01:49;5.90;99.90
16829;DHT22;8531;48.078;11.968;2024-03-23T15:04:15;5.80;99.90
16829;DHT22;8531;48.078;11.968;2024-03-23T15:06:41;5.90;99.90
16829;DHT22;8531;48.078;11.968;2024-03-23T15:09:07;5.90;99.90
16829;DHT22;8531;48.078;11.968;2024-03-23T15:11:36;6.00;99.90
16829;DHT22;8531;48.078;11.968;2024-03-23T15:14:02;5.90;99.90
16829;DHT22;8531;48.078;11.968;2024-03-23T15:16:28;5.90;99.90
16829;DHT22;8531;48.078;11.968;2024-03-23T15:18:53;5.90;99.90
16829;DHT22;8531;48.078;11.968;2024-03-23T15:21:19;5.80;99.90
16829;DHT22;8531;48.078;11.968;2024-03-23T15:23:47;5.80;99.90
16829;DHT22;8531;48.078;11.968;2024-03-23T15:26:13;5.80;99.90
16829;DHT22;8531;48.078;11.968;2024-03-23T15:28:39;5.80;99.90
16829;DHT22;8531;48.078;11.968;2024-03-23T15:31:23;5.60;99.90
16829;DHT22;8531;48.078;11.968;2024-03-23T15:33:49;5.40;99.90
16829;DHT22;8531;48.078;11.968;2024-03-23T15:36:15;5.40;99.90
16829;DHT22;8531;48.078;11.968;2024-03-23T15:38:41;5.50;99.90
16829;DHT22;8531;48.078;11.968;2024-03-23T15:41:08;5.50;99.90
16829;DHT22;8531;48.078;11.968;2024-03-23T15:43:34;5.50;99.90
16829;DHT22;8531;48.078;11.968;2024-03-23T15:46:01;5.60;99.90
16829;DHT22;8531;48.078;11.968;2024-03-23T15:48:30;5.60;99.90
16829;DHT22;8531;48.078;11.968;2024-03-23T15:51:01;5.70;99.90
16829;DHT22;8531;48.078;11.968;2024-03-23T15:53:27;5.80;99.90
16829;DHT22;8531;48.078;11.968;2024-03-23T15:56:03;5.80;99.90
16829;DHT22;8531;48.078;11.968;2024-03-23T15:58:30;5.80;99.90
16829;DHT22;8531;48.078;11.968;2024-03-23T16:03:23;5.80;99.90
16829;DHT22;8531;48.078;11.968;2024-03-23T16:05:56;5.80;99.90
16829;DHT22;8531;48.078;11.968;2024-03-23T16:08:22;5.80;99.90
16829;DHT22;8531;48.078;11.968;2024-03-23T16:10:48;5.80;99.90
16829;DHT22;8531;48.078;11.968;2024-03-23T16:13:14;5.90;99.90
16829;DHT22;8531;48.078;11.968;2024-03-23T16:15:41;5.90;99.90
16829;DHT22;8531;48.078;11.968;2024-03-23T16:18:06;6.00;99.90
16829;DHT22;8531;48.078;11.968;2024-03-23T16:20:32;6.00;99.90
16829;DHT22;8531;48.078;11.968;2024-03-23T16:22:59;5.90;99.90
16829;DHT22;8531;48.078;11.968;2024-03-23T16:25:25;6.10;99.90
16829;DHT22;8531;48.078;11.968;2024-03-23T16:27:51;6.20;99.90
16829;DHT22;8531;48.078;11.968;2024-03-23T16:30:17;6.30;99.90
16829;DHT22;8531;48.078;11.968;2024-03-23T16:32:42;6.60;99.90
16829;DHT22;8531;48.078;11.968;2024-03-23T16:35:08;6.80;99.90
16829;DHT22;8531;48.078;11.968;2024-03-23T16:37:37;7.10;99.90
16829;DHT22;8531;48.078;11.968;2024-03-23T16:40:03;7.20;99.90
16829;DHT22;8531;48.078;11.968;2024-03-23T16:42:32;7.30;99.90